sensor_id;sensor_type;location;lat;lon;timestamp;P1;durP1;ratioP1;P2;durP2;ratioP2
71753;SDS011;59593;51.716;7.016;2024-02-14T00:00:16;6.43;;;3.90;;
71753;SDS011;59593;51.716;7.016;2024-02-14T00:02:46;6.63;;;4.03;;
71753;SDS011;59593;51.716;7.016;2024-02-14T00:05:14;7.83;;;4.57;;
71753;SDS011;59593;51.716;7.016;2024-02-14T00:07:41;8.13;;;4.37;;
71753;SDS011;59593;51.716;7.016;2024-02-14T00:10:06;7.80;;;4.40;;
71753;SDS011;59593;51.716;7.016;2024-02-14T00:12:34;7.70;;;4.43;;
71753;SDS011;59593;51.716;7.016;2024-02-14T00:15:02;9.23;;;4.80;;
71753;SDS011;59593;51.716;7.016;2024-02-14T00:17:28;8.17;;;4.57;;
71753;SDS011;59593;51.716;7.016;2024-02-14T00:19:54;7.97;;;4.80;;
71753;SDS011;59593;51.716;7.016;2024-02-14T00:22:20;7.80;;;4.30;;
71753;SDS011;59593;51.716;7.016;2024-02-14T00:24:46;8.13;;;4.93;;
71753;SDS011;59593;51.716;7.016;2024-02-14T00:27:12;9.73;;;4.87;;
71753;SDS011;59593;51.716;7.016;2024-02-14T00:29:39;10.50;;;4.90;;
71753;SDS011;59593;51.716;7.016;2024-02-14T00:32:05;7.80;;;4.67;;
71753;SDS011;59593;51.716;7.016;2024-02-14T00:34:32;8.30;;;4.57;;
71753;SDS011;59593;51.716;7.016;2024-02-14T00:36:59;7.33;;;4.80;;
71753;SDS011;59593;51.716;7.016;2024-02-14T00:39:24;9.47;;;4.93;;
71753;SDS011;59593;51.716;7.016;2024-02-14T00:41:50;8.33;;;4.57;;
71753;SDS011;59593;51.716;7.016;2024-02-14T00:44:17;7.03;;;4.90;;
71753;SDS011;59593;51.716;7.016;2024-02-14T00:46:44;7.00;;;4.93;;
71753;SDS011;59593;51.716;7.016;2024-02-14T00:49:09;9.73;;;5.13;;
71753;SDS011;59593;51.716;7.016;2024-02-14T00:51:36;10.27;;;5.30;;
71753;SDS011;59593;51.716;7.016;2024-02-14T00:54:06;7.07;;;4.80;;
71753;SDS011;59593;51.716;7.016;2024-02-14T00:56:33;9.43;;;5.70;;
71753;SDS011;59593;51.716;7.016;2024-02-14T00:58:58;8.20;;;5.63;;
71753;SDS011;59593;51.716;7.016;2024-02-14T01:01:24;7.60;;;5.43;;
71753;SDS011;59593;51.716;7.016;2024-02-14T01:03:50;10.67;;;5.43;;
71753;SDS011;59593;51.716;7.016;2024-02-14T01:06:16;9.10;;;4.97;;
71753;SDS011;59593;51.716;7.016;2024-02-14T01:08:43;9.97;;;5.37;;
71753;SDS011;59593;51.716;7.016;2024-02-14T01:11:09;7.10;;;5.17;;
71753;SDS011;59593;51.716;7.016;2024-02-14T01:13:37;6.60;;;5.00;;
71753;SDS011;59593;51.716;7.016;2024-02-14T01:16:03;7.90;;;4.83;;
71753;SDS011;59593;51.716;7.016;2024-02-14T01:18:32;8.27;;;4.63;;
71753;SDS011;59593;51.716;7.016;2024-02-14T01:20:58;6.77;;;4.47;;
71753;SDS011;59593;51.716;7.016;2024-02-14T01:23:25;8.03;;;4.83;;
71753;SDS011;59593;51.716;7.016;2024-02-14T01:25:51;8.77;;;4.70;;
71753;SDS011;59593;51.716;7.016;2024-02-14T01:28:19;5.47;;;4.13;;
71753;SDS011;59593;51.716;7.016;2024-02-14T01:30:45;8.17;;;4.40;;
71753;SDS011;59593;51.716;7.016;2024-02-14T01:33:11;7.70;;;4.27;;
71753;SDS011;59593;51.716;7.016;2024-02-14T01:35:36;8.27;;;4.43;;
71753;SDS011;59593;51.716;7.016;2024-02-14T01:38:02;6.20;;;3.80;;
71753;SDS011;59593;51.716;7.016;2024-02-14T01:40:31;5.90;;;4.10;;
71753;SDS011;59593;51.716;7.016;2024-02-14T01:42:56;7.40;;;4.10;;
71753;SDS011;59593;51.716;7.016;2024-02-14T01:45:22;7.90;;;4.10;;
71753;SDS011;59593;51.716;7.016;2024-02-14T01:47:48;9.63;;;4.17;;
71753;SDS011;59593;51.716;7.016;2024-02-14T01:50:15;6.03;;;3.80;;
71753;SDS011;59593;51.716;7.016;2024-02-14T01:52:41;5.70;;;3.70;;
71753;SDS011;59593;51.716;7.016;2024-02-14T01:55:09;5.97;;;3.80;;
71753;SDS011;59593;51.716;7.016;2024-02-14T01:57:37;6.60;;;3.60;;
71753;SDS011;59593;51.716;7.016;2024-02-14T02:00:04;6.17;;;3.30;;
71753;SDS011;59593;51.716;7.016;2024-02-14T02:02:35;6.70;;;3.50;;
71753;SDS011;59593;51.716;7.016;2024-02-14T02:05:02;4.77;;;3.50;;
71753;SDS011;59593;51.716;7.016;2024-02-14T02:07:28;5.80;;;3.67;;
71753;SDS011;59593;51.716;7.016;2024-02-14T02:09:55;6.30;;;3.47;;
71753;SDS011;59593;51.716;7.016;2024-02-14T02:12:22;6.80;;;3.73;;
71753;SDS011;59593;51.716;7.016;2024-02-14T02:14:52;4.90;;;3.53;;
71753;SDS011;59593;51.716;7.016;2024-02-14T02:17:20;5.93;;;3.30;;
71753;SDS011;59593;51.716;7.016;2024-02-14T02:19:46;5.57;;;3.10;;
71753;SDS011;59593;51.716;7.016;2024-02-14T02:22:12;6.90;;;3.10;;
71753;SDS011;59593;51.716;7.016;2024-02-14T02:24:37;5.37;;;3.00;;
71753;SDS011;59593;51.716;7.016;2024-02-14T02:27:03;4.40;;;2.93;;
71753;SDS011;59593;51.716;7.016;2024-02-14T02:29:29;6.03;;;3.17;;
71753;SDS011;59593;51.716;7.016;2024-02-14T02:31:56;4.73;;;2.90;;
71753;SDS011;59593;51.716;7.016;2024-02-14T02:34:21;5.37;;;3.10;;
71753;SDS011;59593;51.716;7.016;2024-02-14T02:36:47;5.87;;;3.20;;
71753;SDS011;59593;51.716;7.016;2024-02-14T02:39:15;5.77;;;2.80;;
71753;SDS011;59593;51.716;7.016;2024-02-14T02:41:41;5.07;;;2.90;;
71753;SDS011;59593;51.716;7.016;2024-02-14T02:44:08;6.37;;;2.87;;
71753;SDS011;59593;51.716;7.016;2024-02-14T02:46:33;3.37;;;2.57;;
71753;SDS011;59593;51.716;7.016;2024-02-14T02:48:59;5.03;;;2.77;;
71753;SDS011;59593;51.716;7.016;2024-02-14T02:51:24;4.50;;;2.90;;
71753;SDS011;59593;51.716;7.016;2024-02-14T02:53:50;5.17;;;2.67;;
71753;SDS011;59593;51.716;7.016;2024-02-14T02:56:19;5.33;;;2.33;;
71753;SDS011;59593;51.716;7.016;2024-02-14T02:58:46;4.90;;;2.97;;
71753;SDS011;59593;51.716;7.016;2024-02-14T03:01:13;4.20;;;2.70;;
71753;SDS011;59593;51.716;7.016;2024-02-14T03:03:40;4.70;;;2.93;;
71753;SDS011;59593;51.716;7.016;2024-02-14T03:06:07;3.60;;;2.70;;
71753;SDS011;59593;51.716;7.016;2024-02-14T03:08:34;4.63;;;3.00;;
71753;SDS011;59593;51.716;7.016;2024-02-14T03:11:04;4.83;;;3.00;;
71753;SDS011;59593;51.716;7.016;2024-02-14T03:13:31;5.17;;;2.87;;
71753;SDS011;59593;51.716;7.016;2024-02-14T03:15:57;5.17;;;3.50;;
71753;SDS011;59593;51.716;7.016;2024-02-14T03:18:23;5.13;;;3.30;;
71753;SDS011;59593;51.716;7.016;2024-02-14T03:20:49;4.60;;;2.90;;
71753;SDS011;59593;51.716;7.016;2024-02-14T03:23:16;7.33;;;3.10;;
71753;SDS011;59593;51.716;7.016;2024-02-14T03:25:42;8.93;;;3.53;;
71753;SDS011;59593;51.716;7.016;2024-02-14T03:28:08;5.03;;;3.10;;
71753;SDS011;59593;51.716;7.016;2024-02-14T03:30:37;7.20;;;3.50;;
71753;SDS011;59593;51.716;7.016;2024-02-14T03:33:04;5.30;;;3.33;;
71753;SDS011;59593;51.716;7.016;2024-02-14T03:35:30;6.93;;;3.57;;
71753;SDS011;59593;51.716;7.016;2024-02-14T03:37:56;5.27;;;3.43;;
71753;SDS011;59593;51.716;7.016;2024-02-14T03:40:23;7.90;;;3.53;;
71753;SDS011;59593;51.716;7.016;2024-02-14T03:42:49;5.00;;;3.77;;
71753;SDS011;59593;51.716;7.016;2024-02-14T03:45:14;5.63;;;3.80;;
71753;SDS011;59593;51.716;7.016;2024-02-14T03:47:40;5.07;;;3.90;;
71753;SDS011;59593;51.716;7.016;2024-02-14T03:50:07;7.30;;;3.90;;
71753;SDS011;59593;51.716;7.016;2024-02-14T03:52:33;8.47;;;4.80;;
71753;SDS011;59593;51.716;7.016;2024-02-14T03:54:59;7.53;;;4.40;;
71753;SDS011;59593;51.716;7.016;2024-02-14T03:57:26;8.10;;;4.90;;
71753;SDS011;59593;51.716;7.016;2024-02-14T03:59:54;6.13;;;4.50;;
71753;SDS011;59593;51.716;7.016;2024-02-14T04:02:21;9.53;;;4.37;;
71753;SDS011;59593;51.716;7.016;2024-02-14T04:04:48;7.70;;;4.67;;
71753;SDS011;59593;51.716;7.016;2024-02-14T04:07:14;6.97;;;4.60;;
71753;SDS011;59593;51.716;7.016;2024-02-14T04:09:40;5.70;;;4.60;;
71753;SDS011;59593;51.716;7.016;2024-02-14T04:12:06;7.73;;;4.93;;
71753;SDS011;59593;51.716;7.016;2024-02-14T04:14:32;6.33;;;4.70;;
71753;SDS011;59593;51.716;7.016;2024-02-14T04:16:57;5.30;;;4.80;;
71753;SDS011;59593;51.716;7.016;2024-02-14T04:19:23;5.47;;;4.97;;
71753;SDS011;59593;51.716;7.016;2024-02-14T04:21:49;7.37;;;5.20;;
71753;SDS011;59593;51.716;7.016;2024-02-14T04:24:15;5.87;;;5.10;;
71753;SDS011;59593;51.716;7.016;2024-02-14T04:26:40;6.30;;;4.60;;
71753;SDS011;59593;51.716;7.016;2024-02-14T04:29:07;5.77;;;4.50;;
71753;SDS011;59593;51.716;7.016;2024-02-14T04:31:33;6.53;;;4.30;;
71753;SDS011;59593;51.716;7.016;2024-02-14T04:33:59;6.60;;;4.30;;
71753;SDS011;59593;51.716;7.016;2024-02-14T04:36:25;9.20;;;4.00;;
71753;SDS011;59593;51.716;7.016;2024-02-14T04:38:51;6.00;;;3.50;;
71753;SDS011;59593;51.716;7.016;2024-02-14T04:41:18;6.77;;;3.67;;
71753;SDS011;59593;51.716;7.016;2024-02-14T04:43:43;3.73;;;3.30;;
71753;SDS011;59593;51.716;7.016;2024-02-14T04:46:09;5.07;;;3.10;;
71753;SDS011;59593;51.716;7.016;2024-02-14T04:48:35;5.50;;;3.37;;
71753;SDS011;59593;51.716;7.016;2024-02-14T04:51:03;5.10;;;3.33;;
71753;SDS011;59593;51.716;7.016;2024-02-14T04:53:30;4.23;;;3.20;;
71753;SDS011;59593;51.716;7.016;2024-02-14T04:55:56;4.60;;;3.23;;
71753;SDS011;59593;51.716;7.016;2024-02-14T04:58:21;3.90;;;2.90;;
71753;SDS011;59593;51.716;7.016;2024-02-14T05:00:47;3.80;;;3.07;;
71753;SDS011;59593;51.716;7.016;2024-02-14T05:03:13;4.83;;;3.17;;
71753;SDS011;59593;51.716;7.016;2024-02-14T05:05:38;4.20;;;3.20;;
71753;SDS011;59593;51.716;7.016;2024-02-14T05:08:04;5.93;;;3.20;;
71753;SDS011;59593;51.716;7.016;2024-02-14T05:10:30;5.90;;;3.60;;
71753;SDS011;59593;51.716;7.016;2024-02-14T05:12:56;7.83;;;3.40;;
71753;SDS011;59593;51.716;7.016;2024-02-14T05:15:22;4.43;;;3.40;;
71753;SDS011;59593;51.716;7.016;2024-02-14T05:17:48;4.47;;;3.03;;
71753;SDS011;59593;51.716;7.016;2024-02-14T05:20:15;5.50;;;2.97;;
71753;SDS011;59593;51.716;7.016;2024-02-14T05:22:41;5.77;;;3.33;;
71753;SDS011;59593;51.716;7.016;2024-02-14T05:25:06;5.27;;;3.60;;
71753;SDS011;59593;51.716;7.016;2024-02-14T05:27:34;4.80;;;3.37;;
71753;SDS011;59593;51.716;7.016;2024-02-14T05:30:00;4.90;;;3.33;;
71753;SDS011;59593;51.716;7.016;2024-02-14T05:32:26;8.27;;;3.60;;
71753;SDS011;59593;51.716;7.016;2024-02-14T05:34:51;3.80;;;3.50;;
71753;SDS011;59593;51.716;7.016;2024-02-14T05:37:17;8.27;;;4.17;;
71753;SDS011;59593;51.716;7.016;2024-02-14T05:39:43;4.13;;;3.50;;
71753;SDS011;59593;51.716;7.016;2024-02-14T05:42:08;18.57;;;5.00;;
71753;SDS011;59593;51.716;7.016;2024-02-14T05:44:34;5.97;;;4.40;;
71753;SDS011;59593;51.716;7.016;2024-02-14T05:46:59;6.17;;;4.33;;
71753;SDS011;59593;51.716;7.016;2024-02-14T05:49:25;7.43;;;3.83;;
71753;SDS011;59593;51.716;7.016;2024-02-14T05:51:51;5.00;;;3.53;;
71753;SDS011;59593;51.716;7.016;2024-02-14T05:54:18;6.70;;;3.57;;
71753;SDS011;59593;51.716;7.016;2024-02-14T05:56:44;4.97;;;3.63;;
71753;SDS011;59593;51.716;7.016;2024-02-14T05:59:11;5.37;;;3.80;;
71753;SDS011;59593;51.716;7.016;2024-02-14T06:01:36;5.90;;;3.80;;
71753;SDS011;59593;51.716;7.016;2024-02-14T06:04:02;4.30;;;3.40;;
71753;SDS011;59593;51.716;7.016;2024-02-14T06:06:27;7.87;;;4.17;;
71753;SDS011;59593;51.716;7.016;2024-02-14T06:08:53;5.60;;;3.77;;
71753;SDS011;59593;51.716;7.016;2024-02-14T06:11:19;6.20;;;3.80;;
71753;SDS011;59593;51.716;7.016;2024-02-14T06:13:46;7.70;;;4.17;;
71753;SDS011;59593;51.716;7.016;2024-02-14T06:16:13;5.83;;;3.80;;
71753;SDS011;59593;51.716;7.016;2024-02-14T06:18:38;5.17;;;4.27;;
71753;SDS011;59593;51.716;7.016;2024-02-14T06:21:07;4.73;;;4.10;;
71753;SDS011;59593;51.716;7.016;2024-02-14T06:23:33;5.70;;;4.50;;
71753;SDS011;59593;51.716;7.016;2024-02-14T06:25:59;6.83;;;4.80;;
71753;SDS011;59593;51.716;7.016;2024-02-14T06:28:25;5.90;;;4.70;;
71753;SDS011;59593;51.716;7.016;2024-02-14T06:30:50;5.83;;;4.93;;
71753;SDS011;59593;51.716;7.016;2024-02-14T06:33:16;6.73;;;5.47;;
71753;SDS011;59593;51.716;7.016;2024-02-14T06:35:42;7.93;;;4.87;;
71753;SDS011;59593;51.716;7.016;2024-02-14T06:38:07;9.30;;;5.80;;
71753;SDS011;59593;51.716;7.016;2024-02-14T06:40:33;5.97;;;5.33;;
71753;SDS011;59593;51.716;7.016;2024-02-14T06:42:59;7.37;;;5.60;;
71753;SDS011;59593;51.716;7.016;2024-02-14T06:45:27;8.07;;;5.37;;
71753;SDS011;59593;51.716;7.016;2024-02-14T06:47:53;12.50;;;6.23;;
71753;SDS011;59593;51.716;7.016;2024-02-14T06:50:20;7.30;;;6.17;;
71753;SDS011;59593;51.716;7.016;2024-02-14T06:52:46;6.70;;;5.93;;
71753;SDS011;59593;51.716;7.016;2024-02-14T06:55:12;7.53;;;5.90;;
71753;SDS011;59593;51.716;7.016;2024-02-14T06:57:38;7.10;;;5.83;;
71753;SDS011;59593;51.716;7.016;2024-02-14T07:00:05;7.70;;;6.70;;
71753;SDS011;59593;51.716;7.016;2024-02-14T07:02:33;8.90;;;6.23;;
71753;SDS011;59593;51.716;7.016;2024-02-14T07:04:59;8.97;;;6.27;;
71753;SDS011;59593;51.716;7.016;2024-02-14T07:07:24;7.40;;;6.70;;
71753;SDS011;59593;51.716;7.016;2024-02-14T07:09:50;7.97;;;6.00;;
71753;SDS011;59593;51.716;7.016;2024-02-14T07:12:16;8.07;;;6.10;;
71753;SDS011;59593;51.716;7.016;2024-02-14T07:14:42;7.83;;;5.97;;
71753;SDS011;59593;51.716;7.016;2024-02-14T07:17:07;7.47;;;6.43;;
71753;SDS011;59593;51.716;7.016;2024-02-14T07:19:33;7.53;;;6.83;;
71753;SDS011;59593;51.716;7.016;2024-02-14T07:21:58;8.63;;;7.33;;
71753;SDS011;59593;51.716;7.016;2024-02-14T07:24:24;8.00;;;6.50;;
71753;SDS011;59593;51.716;7.016;2024-02-14T07:26:49;8.10;;;7.30;;
71753;SDS011;59593;51.716;7.016;2024-02-14T07:29:15;9.03;;;7.00;;
71753;SDS011;59593;51.716;7.016;2024-02-14T07:31:41;8.70;;;7.30;;
71753;SDS011;59593;51.716;7.016;2024-02-14T07:34:06;8.50;;;7.70;;
71753;SDS011;59593;51.716;7.016;2024-02-14T07:36:32;10.37;;;8.37;;
71753;SDS011;59593;51.716;7.016;2024-02-14T07:38:57;10.70;;;7.90;;
71753;SDS011;59593;51.716;7.016;2024-02-14T07:41:24;11.20;;;7.50;;
71753;SDS011;59593;51.716;7.016;2024-02-14T07:43:49;10.07;;;8.53;;
71753;SDS011;59593;51.716;7.016;2024-02-14T07:46:18;10.83;;;8.47;;
71753;SDS011;59593;51.716;7.016;2024-02-14T07:48:44;9.57;;;8.37;;
71753;SDS011;59593;51.716;7.016;2024-02-14T07:51:10;9.87;;;8.83;;
71753;SDS011;59593;51.716;7.016;2024-02-14T07:53:36;9.60;;;8.20;;
71753;SDS011;59593;51.716;7.016;2024-02-14T07:56:02;13.00;;;8.43;;
71753;SDS011;59593;51.716;7.016;2024-02-14T07:58:27;11.23;;;8.90;;
71753;SDS011;59593;51.716;7.016;2024-02-14T08:00:54;9.30;;;8.07;;
71753;SDS011;59593;51.716;7.016;2024-02-14T08:03:20;10.73;;;8.50;;
71753;SDS011;59593;51.716;7.016;2024-02-14T08:05:45;9.73;;;7.53;;
71753;SDS011;59593;51.716;7.016;2024-02-14T08:08:11;8.63;;;7.67;;
71753;SDS011;59593;51.716;7.016;2024-02-14T08:10:36;8.77;;;7.90;;
71753;SDS011;59593;51.716;7.016;2024-02-14T08:13:02;10.07;;;8.90;;
71753;SDS011;59593;51.716;7.016;2024-02-14T08:15:29;9.90;;;8.90;;
71753;SDS011;59593;51.716;7.016;2024-02-14T08:17:54;10.13;;;8.17;;
71753;SDS011;59593;51.716;7.016;2024-02-14T08:20:21;9.80;;;8.10;;
71753;SDS011;59593;51.716;7.016;2024-02-14T08:22:48;11.17;;;8.17;;
71753;SDS011;59593;51.716;7.016;2024-02-14T08:25:14;12.07;;;8.77;;
71753;SDS011;59593;51.716;7.016;2024-02-14T08:27:40;10.80;;;8.50;;
71753;SDS011;59593;51.716;7.016;2024-02-14T08:30:05;9.90;;;8.60;;
71753;SDS011;59593;51.716;7.016;2024-02-14T08:32:32;10.70;;;8.33;;
71753;SDS011;59593;51.716;7.016;2024-02-14T08:34:59;10.87;;;8.90;;
71753;SDS011;59593;51.716;7.016;2024-02-14T08:37:24;9.80;;;7.73;;
71753;SDS011;59593;51.716;7.016;2024-02-14T08:39:50;10.37;;;8.33;;
71753;SDS011;59593;51.716;7.016;2024-02-14T08:42:16;12.27;;;8.20;;
71753;SDS011;59593;51.716;7.016;2024-02-14T08:44:41;10.57;;;7.40;;
71753;SDS011;59593;51.716;7.016;2024-02-14T08:47:07;10.00;;;8.07;;
71753;SDS011;59593;51.716;7.016;2024-02-14T08:49:33;8.43;;;7.30;;
71753;SDS011;59593;51.716;7.016;2024-02-14T08:51:59;13.33;;;8.17;;
71753;SDS011;59593;51.716;7.016;2024-02-14T08:54:25;9.20;;;7.50;;
71753;SDS011;59593;51.716;7.016;2024-02-14T08:56:52;10.50;;;7.27;;
71753;SDS011;59593;51.716;7.016;2024-02-14T08:59:20;11.93;;;7.53;;
71753;SDS011;59593;51.716;7.016;2024-02-14T09:01:46;10.73;;;7.18;;
71753;SDS011;59593;51.716;7.016;2024-02-14T09:04:13;11.23;;;7.03;;
71753;SDS011;59593;51.716;7.016;2024-02-14T09:06:38;12.13;;;6.82;;
71753;SDS011;59593;51.716;7.016;2024-02-14T09:09:05;10.53;;;6.17;;
71753;SDS011;59593;51.716;7.016;2024-02-14T09:11:35;9.40;;;6.53;;
71753;SDS011;59593;51.716;7.016;2024-02-14T09:14:01;6.88;;;5.28;;
71753;SDS011;59593;51.716;7.016;2024-02-14T09:16:31;8.57;;;5.77;;
71753;SDS011;59593;51.716;7.016;2024-02-14T09:18:59;6.75;;;5.10;;
71753;SDS011;59593;51.716;7.016;2024-02-14T09:21:26;8.65;;;5.85;;
71753;SDS011;59593;51.716;7.016;2024-02-14T09:23:52;8.40;;;5.28;;
71753;SDS011;59593;51.716;7.016;2024-02-14T09:26:18;7.70;;;5.70;;
71753;SDS011;59593;51.716;7.016;2024-02-14T09:28:44;9.43;;;5.97;;
71753;SDS011;59593;51.716;7.016;2024-02-14T09:31:09;9.10;;;5.57;;
71753;SDS011;59593;51.716;7.016;2024-02-14T09:33:36;8.10;;;6.32;;
71753;SDS011;59593;51.716;7.016;2024-02-14T09:36:03;9.17;;;5.73;;
71753;SDS011;59593;51.716;7.016;2024-02-14T09:38:29;7.60;;;5.67;;
71753;SDS011;59593;51.716;7.016;2024-02-14T09:40:58;7.05;;;5.65;;
71753;SDS011;59593;51.716;7.016;2024-02-14T09:43:47;9.63;;;6.38;;
71753;SDS011;59593;51.716;7.016;2024-02-14T09:46:13;10.07;;;6.37;;
71753;SDS011;59593;51.716;7.016;2024-02-14T09:48:40;8.97;;;6.70;;
71753;SDS011;59593;51.716;7.016;2024-02-14T09:51:08;8.07;;;6.70;;
71753;SDS011;59593;51.716;7.016;2024-02-14T09:53:35;8.60;;;6.77;;
71753;SDS011;59593;51.716;7.016;2024-02-14T09:56:01;10.13;;;6.83;;
71753;SDS011;59593;51.716;7.016;2024-02-14T09:58:27;9.03;;;7.27;;
71753;SDS011;59593;51.716;7.016;2024-02-14T10:00:54;9.83;;;7.13;;
71753;SDS011;59593;51.716;7.016;2024-02-14T10:03:25;10.73;;;6.93;;
71753;SDS011;59593;51.716;7.016;2024-02-14T10:05:51;11.50;;;7.17;;
71753;SDS011;59593;51.716;7.016;2024-02-14T10:08:18;13.43;;;7.00;;
71753;SDS011;59593;51.716;7.016;2024-02-14T10:10:44;11.67;;;6.83;;
71753;SDS011;59593;51.716;7.016;2024-02-14T10:13:10;9.47;;;6.27;;
71753;SDS011;59593;51.716;7.016;2024-02-14T10:15:36;10.03;;;6.43;;
71753;SDS011;59593;51.716;7.016;2024-02-14T10:18:01;10.00;;;5.70;;
71753;SDS011;59593;51.716;7.016;2024-02-14T10:20:28;9.30;;;6.20;;
71753;SDS011;59593;51.716;7.016;2024-02-14T10:23:02;8.90;;;5.85;;
71753;SDS011;59593;51.716;7.016;2024-02-14T10:25:28;9.83;;;5.43;;
71753;SDS011;59593;51.716;7.016;2024-02-14T10:27:54;9.67;;;6.80;;
71753;SDS011;59593;51.716;7.016;2024-02-14T10:30:20;10.93;;;5.55;;
71753;SDS011;59593;51.716;7.016;2024-02-14T10:32:46;11.27;;;7.00;;
71753;SDS011;59593;51.716;7.016;2024-02-14T10:35:12;10.20;;;6.45;;
71753;SDS011;59593;51.716;7.016;2024-02-14T10:37:39;10.83;;;5.80;;
71753;SDS011;59593;51.716;7.016;2024-02-14T10:40:05;7.30;;;5.00;;
71753;SDS011;59593;51.716;7.016;2024-02-14T10:42:31;10.57;;;5.30;;
71753;SDS011;59593;51.716;7.016;2024-02-14T10:44:58;9.27;;;5.13;;
71753;SDS011;59593;51.716;7.016;2024-02-14T10:47:31;6.90;;;4.30;;
71753;SDS011;59593;51.716;7.016;2024-02-14T10:50:01;8.85;;;4.95;;
71753;SDS011;59593;51.716;7.016;2024-02-14T10:52:30;6.13;;;4.80;;
71753;SDS011;59593;51.716;7.016;2024-02-14T10:54:59;8.57;;;5.17;;
71753;SDS011;59593;51.716;7.016;2024-02-14T10:57:27;7.13;;;5.13;;
71753;SDS011;59593;51.716;7.016;2024-02-14T10:59:54;6.70;;;4.38;;
71753;SDS011;59593;51.716;7.016;2024-02-14T11:02:20;5.70;;;4.38;;
71753;SDS011;59593;51.716;7.016;2024-02-14T11:04:47;9.63;;;5.37;;
71753;SDS011;59593;51.716;7.016;2024-02-14T11:07:18;9.80;;;4.13;;
71753;SDS011;59593;51.716;7.016;2024-02-14T11:09:45;12.85;;;5.43;;
71753;SDS011;59593;51.716;7.016;2024-02-14T11:12:11;7.93;;;3.97;;
71753;SDS011;59593;51.716;7.016;2024-02-14T11:14:37;8.05;;;4.88;;
71753;SDS011;59593;51.716;7.016;2024-02-14T11:17:13;10.88;;;4.53;;
71753;SDS011;59593;51.716;7.016;2024-02-14T11:19:38;9.00;;;3.80;;
71753;SDS011;59593;51.716;7.016;2024-02-14T11:22:38;13.77;;;4.00;;
71753;SDS011;59593;51.716;7.016;2024-02-14T11:25:05;7.07;;;4.07;;
71753;SDS011;59593;51.716;7.016;2024-02-14T11:27:32;7.75;;;3.95;;
71753;SDS011;59593;51.716;7.016;2024-02-14T11:29:58;6.63;;;4.03;;
71753;SDS011;59593;51.716;7.016;2024-02-14T11:32:26;7.65;;;3.85;;
71753;SDS011;59593;51.716;7.016;2024-02-14T11:34:53;6.45;;;3.55;;
71753;SDS011;59593;51.716;7.016;2024-02-14T11:37:27;7.05;;;3.83;;
71753;SDS011;59593;51.716;7.016;2024-02-14T11:39:54;9.07;;;4.00;;
71753;SDS011;59593;51.716;7.016;2024-02-14T11:42:23;7.25;;;3.53;;
71753;SDS011;59593;51.716;7.016;2024-02-14T11:44:49;5.30;;;3.33;;
71753;SDS011;59593;51.716;7.016;2024-02-14T11:47:15;7.97;;;3.58;;
71753;SDS011;59593;51.716;7.016;2024-02-14T11:49:41;7.22;;;3.50;;
71753;SDS011;59593;51.716;7.016;2024-02-14T11:52:13;6.90;;;3.53;;
71753;SDS011;59593;51.716;7.016;2024-02-14T11:54:39;7.72;;;3.58;;
71753;SDS011;59593;51.716;7.016;2024-02-14T11:57:05;6.57;;;3.78;;
71753;SDS011;59593;51.716;7.016;2024-02-14T11:59:33;8.55;;;3.45;;
71753;SDS011;59593;51.716;7.016;2024-02-14T12:01:59;4.20;;;3.45;;
71753;SDS011;59593;51.716;7.016;2024-02-14T12:04:27;5.30;;;2.95;;
71753;SDS011;59593;51.716;7.016;2024-02-14T12:06:53;6.13;;;3.20;;
71753;SDS011;59593;51.716;7.016;2024-02-14T12:09:19;7.00;;;3.50;;
71753;SDS011;59593;51.716;7.016;2024-02-14T12:11:46;4.22;;;2.88;;
71753;SDS011;59593;51.716;7.016;2024-02-14T12:14:12;5.05;;;2.78;;
71753;SDS011;59593;51.716;7.016;2024-02-14T12:16:39;3.65;;;2.67;;
71753;SDS011;59593;51.716;7.016;2024-02-14T12:19:09;5.72;;;2.65;;
71753;SDS011;59593;51.716;7.016;2024-02-14T12:21:40;2.95;;;2.50;;
71753;SDS011;59593;51.716;7.016;2024-02-14T12:24:09;5.15;;;2.50;;
71753;SDS011;59593;51.716;7.016;2024-02-14T12:26:35;3.92;;;2.63;;
71753;SDS011;59593;51.716;7.016;2024-02-14T12:29:02;3.95;;;2.60;;
71753;SDS011;59593;51.716;7.016;2024-02-14T12:31:32;4.38;;;2.60;;
71753;SDS011;59593;51.716;7.016;2024-02-14T12:33:58;3.72;;;2.50;;
71753;SDS011;59593;51.716;7.016;2024-02-14T12:36:26;4.00;;;2.25;;
71753;SDS011;59593;51.716;7.016;2024-02-14T12:38:59;5.03;;;2.70;;
71753;SDS011;59593;51.716;7.016;2024-02-14T12:41:27;5.28;;;2.33;;
71753;SDS011;59593;51.716;7.016;2024-02-14T12:43:54;4.40;;;2.17;;
71753;SDS011;59593;51.716;7.016;2024-02-14T12:46:20;4.40;;;2.40;;
71753;SDS011;59593;51.716;7.016;2024-02-14T12:48:46;3.35;;;2.10;;
71753;SDS011;59593;51.716;7.016;2024-02-14T12:51:11;4.18;;;2.40;;
71753;SDS011;59593;51.716;7.016;2024-02-14T12:53:37;2.95;;;2.20;;
71753;SDS011;59593;51.716;7.016;2024-02-14T12:56:04;3.72;;;2.22;;
71753;SDS011;59593;51.716;7.016;2024-02-14T12:58:30;4.13;;;2.20;;
71753;SDS011;59593;51.716;7.016;2024-02-14T13:00:57;4.80;;;2.00;;
71753;SDS011;59593;51.716;7.016;2024-02-14T13:03:23;2.75;;;1.98;;
71753;SDS011;59593;51.716;7.016;2024-02-14T13:05:49;4.82;;;2.20;;
71753;SDS011;59593;51.716;7.016;2024-02-14T13:08:18;3.08;;;1.95;;
71753;SDS011;59593;51.716;7.016;2024-02-14T13:10:45;4.47;;;1.60;;
71753;SDS011;59593;51.716;7.016;2024-02-14T13:13:10;3.28;;;1.92;;
71753;SDS011;59593;51.716;7.016;2024-02-14T13:15:36;1.80;;;1.67;;
71753;SDS011;59593;51.716;7.016;2024-02-14T13:18:02;4.32;;;1.80;;
71753;SDS011;59593;51.716;7.016;2024-02-14T13:20:28;2.60;;;1.60;;
71753;SDS011;59593;51.716;7.016;2024-02-14T13:22:54;1.80;;;1.50;;
71753;SDS011;59593;51.716;7.016;2024-02-14T13:25:20;3.00;;;1.60;;
71753;SDS011;59593;51.716;7.016;2024-02-14T13:27:46;2.88;;;1.80;;
71753;SDS011;59593;51.716;7.016;2024-02-14T13:30:12;2.15;;;1.60;;
71753;SDS011;59593;51.716;7.016;2024-02-14T13:32:38;3.95;;;1.83;;
71753;SDS011;59593;51.716;7.016;2024-02-14T13:35:04;2.17;;;1.90;;
71753;SDS011;59593;51.716;7.016;2024-02-14T13:37:30;2.28;;;1.98;;
71753;SDS011;59593;51.716;7.016;2024-02-14T13:39:57;2.83;;;1.60;;
71753;SDS011;59593;51.716;7.016;2024-02-14T13:42:22;2.13;;;1.77;;
71753;SDS011;59593;51.716;7.016;2024-02-14T13:44:48;3.00;;;1.70;;
71753;SDS011;59593;51.716;7.016;2024-02-14T13:47:17;2.22;;;1.80;;
71753;SDS011;59593;51.716;7.016;2024-02-14T13:49:46;2.55;;;1.77;;
71753;SDS011;59593;51.716;7.016;2024-02-14T13:52:12;4.22;;;1.95;;
71753;SDS011;59593;51.716;7.016;2024-02-14T13:54:38;3.67;;;1.77;;
71753;SDS011;59593;51.716;7.016;2024-02-14T13:57:03;2.40;;;2.08;;
71753;SDS011;59593;51.716;7.016;2024-02-14T13:59:29;3.53;;;2.13;;
71753;SDS011;59593;51.716;7.016;2024-02-14T14:01:55;2.25;;;1.80;;
71753;SDS011;59593;51.716;7.016;2024-02-14T14:04:20;4.07;;;2.08;;
71753;SDS011;59593;51.716;7.016;2024-02-14T14:06:46;3.20;;;1.83;;
71753;SDS011;59593;51.716;7.016;2024-02-14T14:09:12;4.68;;;2.40;;
71753;SDS011;59593;51.716;7.016;2024-02-14T14:11:38;3.72;;;2.17;;
71753;SDS011;59593;51.716;7.016;2024-02-14T14:14:04;6.13;;;3.40;;
71753;SDS011;59593;51.716;7.016;2024-02-14T14:16:30;5.43;;;2.53;;
71753;SDS011;59593;51.716;7.016;2024-02-14T14:18:58;4.72;;;2.90;;
71753;SDS011;59593;51.716;7.016;2024-02-14T14:21:23;4.97;;;2.67;;
71753;SDS011;59593;51.716;7.016;2024-02-14T14:23:49;4.75;;;2.30;;
71753;SDS011;59593;51.716;7.016;2024-02-14T14:26:15;3.03;;;2.10;;
71753;SDS011;59593;51.716;7.016;2024-02-14T14:28:40;4.05;;;1.98;;
71753;SDS011;59593;51.716;7.016;2024-02-14T14:31:07;3.30;;;2.08;;
71753;SDS011;59593;51.716;7.016;2024-02-14T14:33:36;4.03;;;2.40;;
71753;SDS011;59593;51.716;7.016;2024-02-14T14:36:03;5.35;;;2.28;;
71753;SDS011;59593;51.716;7.016;2024-02-14T14:38:31;3.80;;;2.40;;
71753;SDS011;59593;51.716;7.016;2024-02-14T14:40:57;3.17;;;2.53;;